createdAt,value
2023-04-25T00:00:21.084Z,63.54
2023-04-25T00:02:22.771Z,63.92
2023-04-25T00:04:24.710Z,63.62
2023-04-25T00:06:26.470Z,63.57
2023-04-25T00:08:28.112Z,64.03
2023-04-25T00:10:29.854Z,64.11
2023-04-25T00:12:31.522Z,64.08
2023-04-25T00:14:34.498Z,64.58
2023-04-25T00:16:36.135Z,64.03
2023-04-25T00:18:40.426Z,64.43
2023-04-25T00:20:42.042Z,64.05
2023-04-25T00:22:43.581Z,64.38
2023-04-25T00:24:45.313Z,64.46
2023-04-25T00:26:46.929Z,64.71
2023-04-25T00:28:48.917Z,64.61
2023-04-25T00:30:51.933Z,64.32
2023-04-25T00:32:53.492Z,64.77
2023-04-25T00:34:55.992Z,65.12
2023-04-25T00:36:57.543Z,64.83
2023-04-25T00:38:59.123Z,64.42
2023-04-25T00:41:01.100Z,63.83
2023-04-25T00:43:02.634Z,64.63
2023-04-25T00:45:07.043Z,65.38
2023-04-25T00:47:11.793Z,64.52
2023-04-25T00:49:13.527Z,64.46
2023-04-25T00:51:19.952Z,64.40
2023-04-25T00:53:22.430Z,64.54
2023-04-25T00:55:24.138Z,64.97
2023-04-25T00:57:26.084Z,64.68
2023-04-25T00:59:28.876Z,64.82
2023-04-25T01:01:31.199Z,64.61
2023-04-25T01:03:35.553Z,64.10
2023-04-25T01:05:37.389Z,64.54
2023-04-25T01:07:39.101Z,64.94
2023-04-25T01:09:41.866Z,65.00
2023-04-25T01:11:43.427Z,65.00
2023-04-25T01:13:45.225Z,65.07
2023-04-25T01:15:46.870Z,65.19
2023-04-25T01:17:48.529Z,65.84
2023-04-25T01:19:51.722Z,65.82
2023-04-25T01:21:54.807Z,65.88
2023-04-25T01:23:56.871Z,66.13
2023-04-25T01:25:58.537Z,65.83
2023-04-25T01:28:00.160Z,66.23
2023-04-25T01:30:01.897Z,66.00
2023-04-25T01:32:03.992Z,65.82
2023-04-25T01:34:05.774Z,66.11
2023-04-25T01:36:08.070Z,66.25
2023-04-25T01:38:13.220Z,66.17
2023-04-25T01:40:14.739Z,66.00
2023-04-25T01:42:16.463Z,66.28
2023-04-25T01:44:18.184Z,66.42
2023-04-25T01:46:20.083Z,66.21
2023-04-25T01:48:21.718Z,65.86
2023-04-25T01:50:24.121Z,66.41
2023-04-25T01:52:25.710Z,65.75
2023-04-25T01:54:28.682Z,66.10
2023-04-25T01:56:31.514Z,66.16
2023-04-25T01:58:33.046Z,67.02
2023-04-25T02:00:34.663Z,66.36
2023-04-25T02:02:36.459Z,66.84
2023-04-25T02:04:38.241Z,67.03
2023-04-25T02:06:39.933Z,66.74
2023-04-25T02:08:41.546Z,67.52
2023-04-25T02:10:44.681Z,67.97
2023-04-25T02:12:46.240Z,68.04
2023-04-25T02:14:49.674Z,68.25
2023-04-25T02:16:51.270Z,68.19
2023-04-25T02:18:52.960Z,68.79
2023-04-25T02:20:54.986Z,69.21
2023-04-25T02:22:56.633Z,69.24
2023-04-25T02:24:58.204Z,69.40
2023-04-25T02:27:01.191Z,69.15
2023-04-25T02:29:02.714Z,69.30
2023-04-25T02:31:04.417Z,69.11
2023-04-25T02:33:06.226Z,69.36
2023-04-25T02:35:08.531Z,69.35
2023-04-25T02:37:10.125Z,68.86
2023-04-25T02:39:11.784Z,69.34
2023-04-25T02:41:13.251Z,69.81
2023-04-25T02:43:16.518Z,69.07
2023-04-25T02:45:18.293Z,69.05
2023-04-25T02:47:20.135Z,69.59
2023-04-25T02:49:22.181Z,69.27
2023-04-25T02:51:23.785Z,69.52
2023-04-25T02:53:25.488Z,69.65
2023-04-25T02:55:28.432Z,69.25
2023-04-25T02:57:30.083Z,69.12
2023-04-25T02:59:33.250Z,69.02
2023-04-25T03:01:34.862Z,69.19
2023-04-25T03:03:36.584Z,69.08
2023-04-25T03:05:38.225Z,69.43
2023-04-25T03:07:39.795Z,69.36
2023-04-25T03:09:41.350Z,69.58
2023-04-25T03:11:43.317Z,69.32
2023-04-25T03:13:44.821Z,69.76
2023-04-25T03:15:47.740Z,69.29
2023-04-25T03:17:49.319Z,69.64
2023-04-25T03:19:50.996Z,69.49
2023-04-25T03:21:52.707Z,69.01
2023-04-25T03:23:54.256Z,69.54
2023-04-25T03:25:55.825Z,69.44
2023-04-25T03:27:57.393Z,69.42
2023-04-25T03:29:59.293Z,69.24
2023-04-25T03:32:02.268Z,69.39
2023-04-25T03:34:03.889Z,69.44
2023-04-25T03:36:06.380Z,69.18
2023-04-25T03:38:07.995Z,68.63
2023-04-25T03:40:10.071Z,67.98
2023-04-25T03:42:11.734Z,68.38
2023-04-25T03:44:13.286Z,68.08
2023-04-25T03:46:15.053Z,68.16
2023-04-25T03:48:18.396Z,67.54
2023-04-25T03:50:19.965Z,68.29
2023-04-25T03:52:21.514Z,67.63
2023-04-25T03:54:23.414Z,67.43
2023-04-25T03:56:25.095Z,67.72
2023-04-25T03:58:26.636Z,67.82
2023-04-25T04:00:28.163Z,67.76
2023-04-25T04:02:35.398Z,67.18
2023-04-25T04:04:38.753Z,67.24
2023-04-25T04:06:40.466Z,67.80
2023-04-25T04:08:42.041Z,67.07
2023-04-25T04:10:43.728Z,67.36
2023-04-25T04:12:45.360Z,67.66
2023-04-25T04:14:46.906Z,67.49
2023-04-25T04:16:48.536Z,67.87
2023-04-25T04:18:50.050Z,67.94
2023-04-25T04:20:53.180Z,67.93
2023-04-25T04:22:54.792Z,68.04
2023-04-25T04:24:56.583Z,68.51
2023-04-25T04:26:58.143Z,68.40
2023-04-25T04:28:59.702Z,68.41
2023-04-25T04:31:01.293Z,67.94
2023-04-25T04:33:03.047Z,67.88
2023-04-25T04:35:06.472Z,68.91
2023-04-25T04:37:09.826Z,68.36
2023-04-25T04:39:11.365Z,68.26
2023-04-25T04:41:12.886Z,68.30
2023-04-25T04:43:14.462Z,69.15
2023-04-25T04:45:16.182Z,68.14
2023-04-25T04:47:17.711Z,68.96
2023-04-25T04:49:19.271Z,68.38
2023-04-25T04:51:20.950Z,68.36
2023-04-25T04:53:23.837Z,68.85
2023-04-25T04:55:25.396Z,68.74
2023-04-25T04:57:27.002Z,68.44
2023-04-25T04:59:28.657Z,68.18
2023-04-25T05:01:30.272Z,67.81
2023-04-25T05:03:32.342Z,66.89
2023-04-25T05:05:34.149Z,66.44
2023-04-25T05:07:36.197Z,66.08
2023-04-25T05:09:39.176Z,66.17
2023-04-25T05:11:40.728Z,65.62
2023-04-25T05:13:42.331Z,65.86
2023-04-25T05:15:44.010Z,65.64
2023-04-25T05:17:45.667Z,66.03
2023-04-25T05:19:47.207Z,65.58
2023-04-25T05:21:48.832Z,65.63
2023-04-25T05:23:50.468Z,65.07
2023-04-25T05:25:53.611Z,64.25
2023-04-25T05:27:55.168Z,63.58
2023-04-25T05:29:56.689Z,63.04
2023-04-25T05:31:58.272Z,63.20
2023-04-25T05:33:59.894Z,63.34
2023-04-25T05:36:01.456Z,63.11
2023-04-25T05:38:03.007Z,63.36
2023-04-25T05:40:05.887Z,62.33
2023-04-25T05:42:08.913Z,61.92
2023-04-25T05:44:10.449Z,61.42
2023-04-25T05:46:12.278Z,61.91
2023-04-25T05:48:14.394Z,61.77
2023-04-25T05:50:16.190Z,61.32
2023-04-25T05:52:17.786Z,60.58
2023-04-25T05:54:19.350Z,61.05
2023-04-25T05:56:21.056Z,59.69
2023-04-25T05:58:23.958Z,59.93
2023-04-25T06:00:25.869Z,59.65
2023-04-25T06:02:27.648Z,59.49
2023-04-25T06:04:29.729Z,57.83
2023-04-25T06:06:31.581Z,57.93
2023-04-25T06:08:33.261Z,58.37
2023-04-25T06:10:34.901Z,58.07
2023-04-25T06:12:36.426Z,58.05
2023-04-25T06:14:39.719Z,58.38
2023-04-25T06:16:41.287Z,58.60
2023-04-25T06:18:42.884Z,58.62
2023-04-25T06:20:44.469Z,58.80
2023-04-25T06:22:45.993Z,59.16
2023-04-25T06:24:47.521Z,58.75
2023-04-25T06:26:49.117Z,58.69
2023-04-25T06:28:51.069Z,59.23
2023-04-25T06:30:54.177Z,59.43
2023-04-25T06:32:55.967Z,59.16
2023-04-25T06:34:57.533Z,58.89
2023-04-25T06:36:59.173Z,58.11
2023-04-25T06:39:00.810Z,57.43
2023-04-25T06:41:02.534Z,57.65
2023-04-25T06:43:04.058Z,56.48
2023-04-25T06:45:06.779Z,56.01
2023-04-25T06:47:10.045Z,55.82
2023-04-25T06:49:11.535Z,55.55
2023-04-25T06:51:13.313Z,55.11
2023-04-25T06:53:15.053Z,54.47
2023-04-25T06:55:16.852Z,54.17
2023-04-25T06:57:18.461Z,53.82
2023-04-25T06:59:20.099Z,54.10
2023-04-25T07:01:21.799Z,54.53
2023-04-25T07:03:25.129Z,53.91
2023-04-25T07:05:26.915Z,54.03
2023-04-25T07:07:28.511Z,53.23
2023-04-25T07:09:30.189Z,53.13
2023-04-25T07:11:32.080Z,51.96
2023-04-25T07:13:33.682Z,51.33
2023-04-25T07:15:35.585Z,51.26
2023-04-25T07:17:37.206Z,51.46
2023-04-25T07:19:40.457Z,50.87
2023-04-25T07:21:42.365Z,51.66
2023-04-25T07:23:43.977Z,51.12
2023-04-25T07:25:45.570Z,50.92
2023-04-25T07:27:47.117Z,50.01
2023-04-25T07:29:51.439Z,49.74
2023-04-25T07:31:53.088Z,49.86
2023-04-25T07:33:54.680Z,49.51
2023-04-25T07:36:00.579Z,51.29
2023-04-25T07:38:02.909Z,51.42
2023-04-25T07:40:05.850Z,51.28
2023-04-25T07:42:07.503Z,51.57
2023-04-25T07:44:09.082Z,51.55
2023-04-25T07:46:10.906Z,51.82
2023-04-25T07:48:12.931Z,50.91
2023-04-25T07:50:14.522Z,50.86
2023-04-25T07:52:17.410Z,50.66
2023-04-25T07:54:19.026Z,50.21
2023-04-25T07:56:20.676Z,50.00
2023-04-25T07:58:22.310Z,49.81
2023-04-25T08:00:24.216Z,49.87
2023-04-25T08:02:26.169Z,49.40
2023-04-25T08:04:28.278Z,50.05
2023-04-25T08:06:30.142Z,50.04
2023-04-25T08:08:33.148Z,49.09
2023-04-25T08:10:34.963Z,47.58
2023-04-25T08:12:36.611Z,47.45
2023-04-25T08:14:38.341Z,48.37
2023-04-25T08:16:40.369Z,48.50
2023-04-25T08:18:42.030Z,48.18
2023-04-25T08:20:43.562Z,47.50
2023-04-25T08:22:45.326Z,47.56
2023-04-25T08:24:48.701Z,47.23
2023-04-25T08:26:50.361Z,46.04
2023-04-25T08:28:52.440Z,46.41
2023-04-25T08:30:54.575Z,46.91
2023-04-25T08:32:56.165Z,46.50
2023-04-25T08:34:57.956Z,47.14
2023-04-25T08:36:59.644Z,47.31
2023-04-25T08:39:01.303Z,47.64
2023-04-25T08:41:06.076Z,46.86
2023-04-25T08:43:08.378Z,47.07
2023-04-25T08:45:10.959Z,47.46
2023-04-25T08:47:12.596Z,46.69
2023-04-25T08:49:14.203Z,46.61
2023-04-25T08:51:23.037Z,46.72
2023-04-25T08:53:28.553Z,46.68
2023-04-25T08:55:31.847Z,45.42
2023-04-25T08:57:35.352Z,46.44
2023-04-25T08:59:39.166Z,46.62
2023-04-25T09:01:41.232Z,46.77
2023-04-25T09:03:43.260Z,46.69
2023-04-25T09:05:45.514Z,46.76
2023-04-25T09:07:48.460Z,46.62
2023-04-25T09:09:51.403Z,46.12
2023-04-25T09:11:55.380Z,45.96
2023-04-25T09:14:14.778Z,47.22
2023-04-25T09:16:16.345Z,46.34
2023-04-25T09:18:29.980Z,46.98
2023-04-25T09:20:33.359Z,46.55
2023-04-25T09:22:37.564Z,46.30
2023-04-25T09:24:41.005Z,46.36
2023-04-25T09:26:42.663Z,45.98
2023-04-25T09:28:44.536Z,45.69
2023-04-25T09:30:47.481Z,46.17
2023-04-25T09:32:49.105Z,46.76
2023-04-25T09:34:52.532Z,47.49
2023-04-25T09:36:55.429Z,46.47
2023-04-25T09:38:57.059Z,45.42
2023-04-25T09:40:59.165Z,45.26
2023-04-25T09:43:00.924Z,43.94
2023-04-25T09:45:04.597Z,43.84
2023-04-25T09:47:10.736Z,42.56
2023-04-25T09:49:15.498Z,42.57
2023-04-25T09:51:17.176Z,41.61
2023-04-25T09:53:19.063Z,41.08
2023-04-25T09:55:21.427Z,41.05
2023-04-25T09:57:24.911Z,41.57
2023-04-25T09:59:26.887Z,41.18
2023-04-25T10:01:31.028Z,41.08
2023-04-25T10:15:13.265Z,41.36
2023-04-25T10:17:15.550Z,41.99
2023-04-25T10:19:17.721Z,41.79
2023-04-25T10:21:21.313Z,42.28
2023-04-25T10:23:25.183Z,42.00
2023-04-25T10:25:27.388Z,41.66
2023-04-25T10:27:29.893Z,41.54
2023-04-25T10:29:32.273Z,40.23
2023-04-25T10:31:45.368Z,40.89
2023-04-25T10:33:47.298Z,41.00
2023-04-25T10:35:49.552Z,41.04
2023-04-25T10:38:35.243Z,42.54
2023-04-25T10:40:38.254Z,41.32
2023-04-25T10:42:42.244Z,42.02
2023-04-25T10:45:02.927Z,41.72
2023-04-25T10:47:07.537Z,41.16
2023-04-25T10:49:29.408Z,41.39
2023-04-25T10:51:43.451Z,40.86
2023-04-25T10:53:59.300Z,41.00
2023-04-25T10:56:11.868Z,40.59
2023-04-25T10:58:14.148Z,41.06
2023-04-25T11:00:17.553Z,41.51
2023-04-25T11:02:19.777Z,40.62
2023-04-25T11:04:23.091Z,40.03
2023-04-25T11:06:34.271Z,40.92
2023-04-25T11:08:48.813Z,41.09
2023-04-25T11:10:52.197Z,40.80
2023-04-25T11:12:55.330Z,41.10
2023-04-25T11:15:00.074Z,41.33
2023-04-25T11:17:03.935Z,41.24
2023-04-25T11:19:05.475Z,41.75
2023-04-25T11:21:07.131Z,41.67
2023-04-25T11:23:08.889Z,42.62
2023-04-25T11:25:12.655Z,42.38
2023-04-25T11:27:14.899Z,42.19
2023-04-25T11:29:18.532Z,43.66
2023-04-25T11:31:21.965Z,42.88
2023-04-25T11:33:25.490Z,42.92
2023-04-25T11:35:30.522Z,43.11
2023-04-25T11:37:32.353Z,42.96
2023-04-25T11:39:33.973Z,42.95
2023-04-25T11:41:35.574Z,43.23
2023-04-25T11:43:37.504Z,44.19
2023-04-25T11:45:40.434Z,43.77
2023-04-25T11:47:42.395Z,44.80
2023-04-25T11:49:43.992Z,43.70
2023-04-25T11:51:47.486Z,44.56
2023-04-25T11:53:49.360Z,44.10
2023-04-25T11:55:51.327Z,44.65
2023-04-25T11:57:53.669Z,44.32
2023-04-25T11:59:55.228Z,43.72
2023-04-25T12:01:58.201Z,44.05
2023-04-25T12:04:11.186Z,44.51
2023-04-25T12:06:18.098Z,45.53
2023-04-25T12:08:21.361Z,43.29
2023-04-25T12:10:25.212Z,43.38
2023-04-25T12:12:33.282Z,42.85
2023-04-25T12:14:37.157Z,43.18
2023-04-25T12:16:42.695Z,42.17
2023-04-25T12:18:45.670Z,41.39
2023-04-25T12:20:47.280Z,41.53
2023-04-25T12:22:49.429Z,41.77
2023-04-25T12:24:51.689Z,41.56
2023-04-25T12:26:54.451Z,41.92
2023-04-25T12:28:56.310Z,42.35
2023-04-25T12:30:59.625Z,42.36
2023-04-25T12:33:01.358Z,41.01
2023-04-25T12:35:05.456Z,41.92
2023-04-25T12:37:07.119Z,41.53
2023-04-25T12:39:09.386Z,41.09
2023-04-25T12:41:10.987Z,41.70
2023-04-25T12:43:12.489Z,41.46
2023-04-25T12:45:14.230Z,41.43
2023-04-25T12:47:15.882Z,42.08
2023-04-25T12:49:19.200Z,42.09
2023-04-25T12:51:22.562Z,42.18
2023-04-25T12:53:24.489Z,42.49
2023-04-25T12:55:26.090Z,42.54
2023-04-25T12:57:27.615Z,43.24
2023-04-25T12:59:29.188Z,43.30
2023-04-25T13:01:31.009Z,43.17
2023-04-25T13:03:32.920Z,43.37
2023-04-25T13:05:34.660Z,43.72
2023-04-25T13:07:37.637Z,43.94
2023-04-25T13:09:39.490Z,44.63
2023-04-25T13:11:41.036Z,44.99
2023-04-25T13:13:42.836Z,44.33
2023-04-25T13:15:44.653Z,44.87
2023-04-25T13:17:46.255Z,45.11
2023-04-25T13:19:48.141Z,44.96
2023-04-25T13:21:49.659Z,45.16
2023-04-25T13:23:52.924Z,45.59
2023-04-25T13:25:55.785Z,45.50
2023-04-25T13:27:57.338Z,45.35
2023-04-25T13:29:58.959Z,45.39
2023-04-25T13:32:00.631Z,45.66
2023-04-25T13:34:02.357Z,45.91
2023-04-25T13:36:04.532Z,45.24
2023-04-25T13:38:06.070Z,45.00
2023-04-25T13:40:11.467Z,44.89
2023-04-25T13:42:13.097Z,44.08
2023-04-25T13:44:15.066Z,43.90
2023-04-25T13:46:35.396Z,43.93
2023-04-25T13:48:38.283Z,43.33
2023-04-25T13:50:39.939Z,43.71
2023-04-25T13:52:41.645Z,42.81
2023-04-25T13:54:43.209Z,43.13
2023-04-25T13:56:46.331Z,43.81
2023-04-25T13:58:47.944Z,43.88
2023-04-25T14:00:49.598Z,41.03
2023-04-25T14:02:51.646Z,39.90
2023-04-25T14:04:53.338Z,39.53
2023-04-25T14:06:54.983Z,40.05
2023-04-25T14:08:57.196Z,40.26
2023-04-25T14:10:58.950Z,41.15
2023-04-25T14:13:01.946Z,40.38
2023-04-25T14:15:04.165Z,40.56
2023-04-25T14:17:05.752Z,41.68
2023-04-25T14:19:07.423Z,41.37
2023-04-25T14:21:09.115Z,40.78
2023-04-25T14:23:10.680Z,40.84
2023-04-25T14:25:12.319Z,40.90
2023-04-25T14:27:13.983Z,41.36
2023-04-25T14:29:16.906Z,42.17
2023-04-25T14:31:18.614Z,42.51
2023-04-25T14:33:20.189Z,42.85
2023-04-25T14:35:21.972Z,42.82
2023-04-25T14:37:24.628Z,43.04
2023-04-25T14:39:26.464Z,42.67
2023-04-25T14:41:28.320Z,42.89
2023-04-25T14:43:29.885Z,43.04
2023-04-25T14:45:32.848Z,43.58
2023-04-25T14:47:35.041Z,43.37
2023-04-25T14:49:36.606Z,42.83
2023-04-25T14:51:38.180Z,43.00
2023-04-25T14:53:40.712Z,42.13
2023-04-25T14:55:42.559Z,42.57
2023-04-25T14:57:44.082Z,42.72
2023-04-25T14:59:45.752Z,42.77
2023-04-25T15:01:48.730Z,42.93
2023-04-25T15:03:51.639Z,43.12
2023-04-25T15:05:53.633Z,43.52
2023-04-25T15:07:55.133Z,43.67
2023-04-25T15:09:56.970Z,43.94
2023-04-25T15:11:59.106Z,43.89
2023-04-25T15:14:00.800Z,44.12
2023-04-25T15:16:02.514Z,44.04
2023-04-25T15:18:05.709Z,43.50
2023-04-25T15:20:08.566Z,43.85
2023-04-25T15:22:10.957Z,43.94
2023-04-25T15:24:12.903Z,43.69
2023-04-25T15:26:14.483Z,43.95
2023-04-25T15:28:16.101Z,44.17
2023-04-25T15:30:18.733Z,43.63
2023-04-25T15:32:20.403Z,43.70
2023-04-25T15:34:23.527Z,44.51
2023-04-25T15:36:25.222Z,44.00
2023-04-25T15:38:26.892Z,44.64
2023-04-25T15:40:28.660Z,44.82
2023-04-25T15:42:30.463Z,44.90
2023-04-25T15:44:32.220Z,44.82
2023-04-25T15:46:33.915Z,44.62
2023-04-25T15:48:35.745Z,45.01
2023-04-25T15:50:38.759Z,45.38
2023-04-25T15:52:40.549Z,44.94
2023-04-25T15:54:42.067Z,44.82
2023-04-25T15:56:43.935Z,45.06
2023-04-25T15:58:45.591Z,45.15
2023-04-25T16:00:47.369Z,45.02
2023-04-25T16:02:49.083Z,44.91
2023-04-25T16:04:50.874Z,45.04
2023-04-25T16:06:53.879Z,43.61
2023-04-25T16:08:55.934Z,43.39
2023-04-25T16:10:57.497Z,42.43
2023-04-25T16:12:59.085Z,42.80
2023-04-25T16:15:00.657Z,42.70
2023-04-25T16:17:02.231Z,43.03
2023-04-25T16:19:03.842Z,42.56
2023-04-25T16:21:05.503Z,43.08
2023-04-25T16:23:08.980Z,42.80
2023-04-25T16:25:11.012Z,42.26
2023-04-25T16:27:12.601Z,42.47
2023-04-25T16:29:14.290Z,43.05
2023-04-25T16:31:15.895Z,42.71
2023-04-25T16:33:17.480Z,42.57
2023-04-25T16:35:19.200Z,43.04
2023-04-25T16:37:20.851Z,43.49
2023-04-25T16:39:23.916Z,43.27
2023-04-25T16:41:25.582Z,43.65
2023-04-25T16:43:27.088Z,42.45
2023-04-25T16:45:28.828Z,42.45
2023-04-25T16:47:30.467Z,43.08
2023-04-25T16:49:32.179Z,42.94
2023-04-25T16:51:33.800Z,42.89
2023-04-25T16:53:35.314Z,42.93
2023-04-25T16:55:38.265Z,43.10
2023-04-25T16:57:39.839Z,42.18
2023-04-25T16:59:41.480Z,42.11
2023-04-25T17:01:43.113Z,41.41
2023-04-25T17:03:45.137Z,40.99
2023-04-25T17:05:50.116Z,40.56
2023-04-25T17:07:51.651Z,40.46
2023-04-25T17:09:53.337Z,41.10
2023-04-25T17:11:56.195Z,41.55
2023-04-25T17:13:57.789Z,42.57
2023-04-25T17:15:59.802Z,42.28
2023-04-25T17:18:01.408Z,41.98
2023-04-25T17:20:03.325Z,42.48
2023-04-25T17:22:04.912Z,42.43
2023-04-25T17:24:19.435Z,43.35
2023-04-25T17:26:20.994Z,43.62
2023-04-25T17:28:23.972Z,43.33
2023-04-25T17:30:25.746Z,43.63
2023-04-25T17:32:27.422Z,44.01
2023-04-25T17:34:29.099Z,43.51
2023-04-25T17:36:31.049Z,43.68
2023-04-25T17:38:49.037Z,44.41
2023-04-25T17:40:50.879Z,44.09
2023-04-25T17:42:52.520Z,45.07
2023-04-25T17:44:55.607Z,45.54
2023-04-25T17:46:57.237Z,45.72
2023-04-25T17:48:58.903Z,46.20
2023-04-25T17:51:00.659Z,45.98
2023-04-25T17:53:02.710Z,46.68
2023-04-25T17:55:05.021Z,46.88
2023-04-25T17:57:06.568Z,47.17
2023-04-25T17:59:08.267Z,47.48
2023-04-25T18:01:11.322Z,47.53
2023-04-25T18:03:13.113Z,47.30
2023-04-25T18:05:14.929Z,47.87
2023-04-25T18:07:16.575Z,47.37
2023-04-25T18:09:18.289Z,47.43
2023-04-25T18:11:20.735Z,47.39
2023-04-25T18:13:22.438Z,47.69
2023-04-25T18:15:24.127Z,48.13
2023-04-25T18:17:27.220Z,47.89
2023-04-25T18:19:28.888Z,47.72
2023-04-25T18:21:30.726Z,47.87
2023-04-25T18:23:35.402Z,47.58
2023-04-25T18:25:37.086Z,48.01
2023-04-25T18:27:39.522Z,47.62
2023-04-25T18:29:44.259Z,47.91
2023-04-25T18:31:47.640Z,48.39
2023-04-25T18:33:52.577Z,48.03
2023-04-25T18:37:58.814Z,48.10
2023-04-25T18:40:00.425Z,48.16
2023-04-25T18:42:06.690Z,48.52
2023-04-25T18:44:10.800Z,48.86
2023-04-25T18:46:12.574Z,48.53
2023-04-25T18:48:14.472Z,48.46
2023-04-25T18:50:17.581Z,48.69
2023-04-25T18:52:19.245Z,48.94
2023-04-25T18:54:20.911Z,49.52
2023-04-25T18:56:23.385Z,49.06
2023-04-25T18:58:25.077Z,48.88
2023-04-25T19:00:26.657Z,49.20
2023-04-25T19:02:28.573Z,49.57
2023-04-25T19:04:30.373Z,49.26
2023-04-25T19:06:33.558Z,49.40
2023-04-25T19:08:35.188Z,49.60
2023-04-25T19:10:37.292Z,49.76
2023-04-25T19:12:38.944Z,50.20
2023-04-25T19:14:48.274Z,50.32
2023-04-25T19:16:49.956Z,50.23
2023-04-25T19:18:54.727Z,49.69
2023-04-25T19:20:56.365Z,50.04
2023-04-25T19:23:01.847Z,50.37
2023-04-25T19:25:10.305Z,50.44
2023-04-25T19:27:12.414Z,50.67
2023-04-25T19:29:15.450Z,50.85
2023-04-25T19:31:17.160Z,51.66
2023-04-25T19:33:22.023Z,52.65
2023-04-25T19:35:23.716Z,53.28
2023-04-25T19:37:25.263Z,53.65
2023-04-25T19:39:28.350Z,53.67
2023-04-25T19:41:31.228Z,53.48
2023-04-25T19:43:33.006Z,54.00
2023-04-25T19:45:34.747Z,53.88
2023-04-25T19:47:39.507Z,53.66
2023-04-25T19:49:41.422Z,53.70
2023-04-25T19:51:43.390Z,53.40
2023-04-25T19:53:45.062Z,53.30
2023-04-25T19:55:48.055Z,53.35
2023-04-25T19:57:51.308Z,53.26
2023-04-25T19:59:53.064Z,53.28
2023-04-25T20:01:57.345Z,54.06
2023-04-25T20:03:59.048Z,54.16
2023-04-25T20:06:00.676Z,53.97
2023-04-25T20:08:03.160Z,53.78
2023-04-25T20:10:07.253Z,53.65
2023-04-25T20:12:10.248Z,54.48
2023-04-25T20:14:11.905Z,54.11
2023-04-25T20:16:13.757Z,54.05
2023-04-25T20:18:15.700Z,54.51
2023-04-25T20:20:17.806Z,54.22
2023-04-25T20:22:19.448Z,54.07
2023-04-25T20:24:21.208Z,53.95
2023-04-25T20:26:23.128Z,54.21
2023-04-25T20:28:26.223Z,54.36
2023-04-25T20:30:30.949Z,54.03
2023-04-25T20:32:47.910Z,54.17
2023-04-25T20:35:06.529Z,53.57
2023-04-25T20:37:08.352Z,53.79
2023-04-25T20:39:19.954Z,53.42
2023-04-25T20:41:23.900Z,54.04
2023-04-25T20:43:29.089Z,54.14
2023-04-25T20:45:33.821Z,53.53
2023-04-25T20:47:36.223Z,53.57
2023-04-25T20:49:44.580Z,53.66
2023-04-25T20:51:49.321Z,53.91
2023-04-25T20:53:59.798Z,53.40
2023-04-25T20:56:01.510Z,54.03
2023-04-25T20:58:03.816Z,53.94
2023-04-25T21:00:11.342Z,53.84
2023-04-25T21:02:13.954Z,53.93
2023-04-25T21:04:15.859Z,54.92
2023-04-25T21:06:21.449Z,54.43
2023-04-25T21:08:26.390Z,55.06
2023-04-25T21:10:44.823Z,55.73
2023-04-25T21:13:02.336Z,55.43
2023-04-25T21:15:04.613Z,55.84
2023-04-25T21:17:12.279Z,56.33
2023-04-25T21:19:13.940Z,56.89
2023-04-25T21:21:21.752Z,55.85
2023-04-25T21:23:28.119Z,57.43
2023-04-25T21:25:45.176Z,56.89
2023-04-25T21:30:40.092Z,58.04
2023-04-25T21:32:48.945Z,58.21
2023-04-25T21:34:50.602Z,58.63
2023-04-25T21:36:52.266Z,58.66
2023-04-25T21:38:59.964Z,58.13
2023-04-25T21:41:01.634Z,58.80
2023-04-25T21:43:03.286Z,58.83
2023-04-25T21:45:06.650Z,58.62
2023-04-25T21:47:08.407Z,58.39
2023-04-25T21:49:12.529Z,58.78
2023-04-25T21:51:14.108Z,58.71
2023-04-25T21:53:15.676Z,58.84
2023-04-25T21:55:17.388Z,59.24
2023-04-25T21:57:19.334Z,58.87
2023-04-25T21:59:23.482Z,59.14
2023-04-25T22:01:25.592Z,59.30
2023-04-25T22:03:27.495Z,59.76
2023-04-25T22:05:30.620Z,59.22
2023-04-25T22:07:32.181Z,59.35
2023-04-25T22:09:43.870Z,59.33
2023-04-25T22:11:53.642Z,59.38
2023-04-25T22:13:55.206Z,59.21
2023-04-25T22:15:56.953Z,59.74
2023-04-25T22:17:59.244Z,59.15
2023-04-25T22:20:01.340Z,59.11
2023-04-25T22:22:04.488Z,59.71
2023-04-25T22:24:06.686Z,59.39
2023-04-25T22:26:08.633Z,59.66
2023-04-25T22:28:10.288Z,58.86
2023-04-25T22:30:12.490Z,58.70
2023-04-25T22:32:14.040Z,59.18
2023-04-25T22:34:15.755Z,59.92
2023-04-25T22:36:17.373Z,59.32
2023-04-25T22:38:20.457Z,59.63
2023-04-25T22:40:22.049Z,59.43
2023-04-25T22:42:24.000Z,59.60
2023-04-25T22:44:25.657Z,59.25
2023-04-25T22:46:27.380Z,59.49
2023-04-25T22:48:29.096Z,59.44
2023-04-25T22:50:30.664Z,59.35
2023-04-25T22:52:32.329Z,59.46
2023-04-25T22:54:35.345Z,59.70
2023-04-25T22:56:36.887Z,60.32
2023-04-25T22:58:39.214Z,60.27
2023-04-25T23:00:40.752Z,60.35
2023-04-25T23:02:43.873Z,60.36
2023-04-25T23:04:45.462Z,60.63
2023-04-25T23:06:47.107Z,60.86
2023-04-25T23:08:48.704Z,60.54
2023-04-25T23:10:51.749Z,59.95
2023-04-25T23:12:53.387Z,60.02
2023-04-25T23:14:54.934Z,61.04
2023-04-25T23:16:56.524Z,60.89
2023-04-25T23:18:58.090Z,62.47
2023-04-25T23:20:59.707Z,62.97
2023-04-25T23:23:01.449Z,62.95
2023-04-25T23:25:03.192Z,63.43
2023-04-25T23:27:06.205Z,63.67
2023-04-25T23:29:07.814Z,64.56
2023-04-25T23:31:10.900Z,65.17
2023-04-25T23:33:12.568Z,65.06
2023-04-25T23:35:14.102Z,65.08
2023-04-25T23:37:15.972Z,65.12
2023-04-25T23:39:17.611Z,64.24
2023-04-25T23:41:19.122Z,64.90
2023-04-25T23:43:22.139Z,64.35
2023-04-25T23:45:24.020Z,65.43
2023-04-25T23:47:25.683Z,64.92
2023-04-25T23:49:27.234Z,64.23
2023-04-25T23:51:28.944Z,64.64
2023-04-25T23:53:30.555Z,65.11
2023-04-25T23:55:32.136Z,65.31
2023-04-25T23:57:33.814Z,65.13
2023-04-25T23:59:36.900Z,65.42
